Time;durP1;ratioP1;P1;durP2;ratioP2;P2;SDS_P1;SDS_P2;PMS_P1;PMS_P2;Temp;Humidity;BMP_temperature;BMP_pressure;BME280_temperature;BME280_humidity;BME280_pressure;Samples;Min_cycle;Max_cycle;Signal;HPM_P1;HPM_P2
2022/11/01 00:02:02;;;;;;;7.23;4.10;;;;;;;;;;5066876;28;20017;-77
2022/11/01 00:04:28;;;;;;;9.45;4.38;;;;;;;;;;5078142;28;20310;-77
2022/11/01 00:06:53;;;;;;;8.88;4.63;;;;;;;;;;5089799;28;20016;-78
2022/11/01 00:09:18;;;;;;;8.37;4.57;;;;;;;;;;5081622;28;20017;-77
2022/11/01 00:11:43;;;;;;;20.07;4.90;;;;;;;;;;5087032;28;20761;-77
2022/11/01 00:14:13;;;;;;;9.95;4.82;;;;;;;;;;5085856;28;20289;-76
2022/11/01 00:16:38;;;;;;;11.95;4.85;;;;;;;;;;5087075;28;20157;-77
2022/11/01 00:19:03;;;;;;;10.25;5.22;;;;;;;;;;5081718;28;20123;-74
2022/11/01 00:21:29;;;;;;;11.57;4.37;;;;;;;;;;5075148;28;20441;-76
2022/11/01 00:23:54;;;;;;;7.35;4.28;;;;;;;;;;5070756;28;20302;-77
2022/11/01 00:26:20;;;;;;;7.17;4.73;;;;;;;;;;5074332;28;20028;-76
2022/11/01 00:28:46;;;;;;;12.90;5.22;;;;;;;;;;5074762;28;20302;-77
2022/11/01 00:31:12;;;;;;;10.80;4.68;;;;;;;;;;5074535;28;20109;-77
2022/11/01 00:33:38;;;;;;;9.05;6.07;;;;;;;;;;5074961;28;20024;-75
2022/11/01 00:36:04;;;;;;;9.32;5.32;;;;;;;;;;5083858;28;20400;-75
2022/11/01 00:38:29;;;;;;;8.85;4.15;;;;;;;;;;5082376;28;20486;-77
2022/11/01 00:40:55;;;;;;;15.65;5.65;;;;;;;;;;5080776;28;20425;-76
2022/11/01 00:43:20;;;;;;;13.65;5.22;;;;;;;;;;5088097;28;20016;-76
2022/11/01 00:45:45;;;;;;;10.43;5.15;;;;;;;;;;5083323;28;20027;-75
2022/11/01 00:48:11;;;;;;;11.18;5.65;;;;;;;;;;5076374;28;20016;-76
2022/11/01 00:50:37;;;;;;;10.15;5.28;;;;;;;;;;5074355;28;20021;-76
2022/11/01 00:53:02;;;;;;;12.82;4.97;;;;;;;;;;5074070;28;20016;-76
2022/11/01 00:55:27;;;;;;;10.48;4.95;;;;;;;;;;5074601;28;20024;-76
2022/11/01 00:57:52;;;;;;;9.07;4.78;;;;;;;;;;5074132;28;20021;-74
2022/11/01 01:00:18;;;;;;;11.60;5.22;;;;;;;;;;5062910;28;20028;-75
2022/11/01 01:02:43;;;;;;;8.05;4.60;;;;;;;;;;5065978;28;20024;-77
2022/11/01 01:05:09;;;;;;;9.57;4.05;;;;;;;;;;5064696;28;20020;-75
2022/11/01 01:07:34;;;;;;;9.95;4.63;;;;;;;;;;5074244;28;20524;-76
2022/11/01 01:09:59;;;;;;;9.02;4.32;;;;;;;;;;5073409;28;20027;-75
2022/11/01 01:12:25;;;;;;;8.13;4.67;;;;;;;;;;5072866;28;20553;-75
2022/11/01 01:14:50;;;;;;;11.05;4.18;;;;;;;;;;5072665;28;20266;-73
2022/11/01 01:17:16;;;;;;;7.40;4.18;;;;;;;;;;5066423;28;20070;-77
2022/11/01 01:19:41;;;;;;;9.52;4.35;;;;;;;;;;5078584;28;20343;-74
2022/11/01 01:22:06;;;;;;;6.57;4.10;;;;;;;;;;5075006;28;20024;-72
2022/11/01 01:24:32;;;;;;;6.90;4.40;;;;;;;;;;5073262;28;20281;-75
2022/11/01 01:26:57;;;;;;;5.97;3.95;;;;;;;;;;5081732;28;20352;-77
2022/11/01 01:29:22;;;;;;;7.60;3.95;;;;;;;;;;5081765;28;20070;-73
2022/11/01 01:31:50;;;;;;;8.70;3.72;;;;;;;;;;5079913;28;20907;-75
2022/11/01 01:34:16;;;;;;;8.52;3.38;;;;;;;;;;5067418;28;20012;-76
2022/11/01 01:36:41;;;;;;;9.10;4.70;;;;;;;;;;5078420;28;20089;-75
2022/11/01 01:39:07;;;;;;;6.07;4.10;;;;;;;;;;5065017;28;20378;-76
2022/11/01 01:44:35;;;;;;;12.57;4.17;;;;;;;;;;5072040;28;20305;-73
2022/11/01 01:47:00;;;;;;;9.00;4.13;;;;;;;;;;5063020;28;20017;-74
2022/11/01 01:49:25;;;;;;;5.93;3.50;;;;;;;;;;5065167;28;20542;-75
2022/11/01 01:51:50;;;;;;;5.63;3.10;;;;;;;;;;5072420;28;20271;-73
2022/11/01 01:54:16;;;;;;;8.90;4.03;;;;;;;;;;5073726;28;20271;-75
2022/11/01 01:56:41;;;;;;;7.13;3.70;;;;;;;;;;5067186;28;20029;-76
2022/11/01 01:59:07;;;;;;;8.55;4.07;;;;;;;;;;5064790;28;20271;-74
2022/11/01 02:01:35;;;;;;;6.43;3.85;;;;;;;;;;5068918;28;20094;-76
2022/11/01 02:04:01;;;;;;;6.13;3.72;;;;;;;;;;5060495;28;20078;-75
2022/11/01 02:06:26;;;;;;;8.55;3.65;;;;;;;;;;5071597;28;20077;-77
2022/11/01 02:08:53;;;;;;;14.10;3.92;;;;;;;;;;5069931;28;20458;-74
2022/11/01 02:11:19;;;;;;;6.18;3.88;;;;;;;;;;5072616;28;20066;-75
2022/11/01 02:13:44;;;;;;;14.48;4.40;;;;;;;;;;5069221;28;20464;-75
2022/11/01 02:16:25;;;;;;;8.13;4.20;;;;;;;;;;5053974;28;20017;-77
2022/11/01 02:19:09;;;;;;;16.60;4.00;;;;;;;;;;5073350;28;20282;-76
2022/11/01 02:21:34;;;;;;;10.33;4.47;;;;;;;;;;5057208;28;20032;-75
2022/11/01 02:24:02;;;;;;;8.30;3.37;;;;;;;;;;5067567;28;20016;-73
2022/11/01 02:26:46;;;;;;;8.90;3.15;;;;;;;;;;5056531;28;20842;-74
2022/11/01 02:29:30;;;;;;;8.57;3.30;;;;;;;;;;5065514;28;20094;-74
2022/11/01 02:32:02;;;;;;;13.48;5.03;;;;;;;;;;5065489;28;20395;-73
2022/11/01 02:34:32;;;;;;;7.65;4.10;;;;;;;;;;5047810;28;20931;-74
2022/11/01 02:37:00;;;;;;;9.30;3.75;;;;;;;;;;5062268;28;20111;-74
2022/11/01 02:39:28;;;;;;;10.18;4.00;;;;;;;;;;5075036;28;20170;-73
2022/11/01 02:42:13;;;;;;;6.95;3.70;;;;;;;;;;5064279;28;20104;-75
2022/11/01 02:44:41;;;;;;;10.02;3.63;;;;;;;;;;5069184;28;20013;-75
2022/11/01 02:47:07;;;;;;;8.20;3.60;;;;;;;;;;5071798;28;20020;-77
2022/11/01 02:49:36;;;;;;;6.25;3.42;;;;;;;;;;5070257;28;20441;-74
2022/11/01 02:52:02;;;;;;;8.57;3.60;;;;;;;;;;5072494;28;20078;-75
2022/11/01 02:54:30;;;;;;;6.13;3.42;;;;;;;;;;5075344;28;20016;-75
2022/11/01 02:57:05;;;;;;;12.82;4.00;;;;;;;;;;5079253;28;20043;-74
2022/11/01 02:59:40;;;;;;;8.00;3.70;;;;;;;;;;5090563;28;20024;-74
2022/11/01 03:02:07;;;;;;;8.25;2.90;;;;;;;;;;5089094;28;20047;-76
2022/11/01 03:04:33;;;;;;;5.38;3.55;;;;;;;;;;5081173;28;20012;-75
2022/11/01 03:07:00;;;;;;;7.32;2.80;;;;;;;;;;5092572;28;20012;-75
2022/11/01 03:09:26;;;;;;;7.97;3.75;;;;;;;;;;5075476;28;20008;-75
2022/11/01 03:12:14;;;;;;;9.80;3.70;;;;;;;;;;5079897;28;20062;-73
2022/11/01 03:14:51;;;;;;;7.25;3.10;;;;;;;;;;5075402;28;20036;-76
2022/11/01 03:17:22;;;;;;;5.38;3.15;;;;;;;;;;5082975;28;20025;-76
2022/11/01 03:20:04;;;;;;;7.10;3.55;;;;;;;;;;5084432;28;20039;-74
2022/11/01 03:22:35;;;;;;;7.82;3.20;;;;;;;;;;5072258;28;20031;-76
2022/11/01 03:28:05;;;;;;;7.53;3.47;;;;;;;;;;5071963;28;20390;-74
2022/11/01 03:30:31;;;;;;;9.73;3.47;;;;;;;;;;5079200;28;20024;-76
2022/11/01 03:32:57;;;;;;;9.20;3.30;;;;;;;;;;5089375;28;20429;-73
2022/11/01 03:35:27;;;;;;;15.75;3.20;;;;;;;;;;5063745;28;20048;-72
2022/11/01 03:37:55;;;;;;;4.65;2.95;;;;;;;;;;5071717;28;20027;-78
2022/11/01 03:40:22;;;;;;;10.90;2.67;;;;;;;;;;5069866;28;20446;-76
2022/11/01 03:42:48;;;;;;;5.97;3.15;;;;;;;;;;5067687;28;20044;-75
2022/11/01 03:45:15;;;;;;;8.15;2.83;;;;;;;;;;5056979;28;20119;-76
2022/11/01 03:47:41;;;;;;;5.47;2.40;;;;;;;;;;5056945;28;20045;-75
2022/11/01 03:50:23;;;;;;;7.38;2.40;;;;;;;;;;5088035;28;20051;-76
2022/11/01 03:52:48;;;;;;;5.38;2.53;;;;;;;;;;5076017;28;20108;-79
2022/11/01 03:55:17;;;;;;;11.55;2.50;;;;;;;;;;5075014;28;20096;-76
2022/11/01 03:57:46;;;;;;;4.82;2.38;;;;;;;;;;5074362;28;20479;-74
2022/11/01 04:00:14;;;;;;;11.05;2.88;;;;;;;;;;5077561;28;20013;-76
2022/11/01 04:02:39;;;;;;;4.40;2.10;;;;;;;;;;5070079;28;20404;-75
2022/11/01 04:05:05;;;;;;;4.78;2.10;;;;;;;;;;5085737;28;20058;-75
2022/11/01 04:07:30;;;;;;;5.47;2.53;;;;;;;;;;5080515;28;20024;-76
2022/11/01 04:09:55;;;;;;;3.90;2.13;;;;;;;;;;5095657;28;20084;-74
2022/11/01 04:12:20;;;;;;;6.63;2.60;;;;;;;;;;5080069;28;20336;-77
2022/11/01 04:20:31;;;;;;;9.70;2.87;;;;;;;;;;5085490;28;20066;-75
2022/11/01 04:22:57;;;;;;;7.95;2.13;;;;;;;;;;5080807;28;20024;-75
2022/11/01 04:25:22;;;;;;;4.85;1.75;;;;;;;;;;5074858;28;20436;-74
2022/11/01 04:27:47;;;;;;;4.37;1.50;;;;;;;;;;5074386;28;20533;-75
2022/11/01 04:30:12;;;;;;;7.73;2.07;;;;;;;;;;5074616;28;20598;-77
2022/11/01 04:32:41;;;;;;;3.87;1.73;;;;;;;;;;5074668;28;20716;-76
2022/11/01 04:35:06;;;;;;;3.00;1.30;;;;;;;;;;5060121;28;20271;-76
2022/11/01 04:37:31;;;;;;;6.60;2.03;;;;;;;;;;5055109;28;20036;-75
2022/11/01 04:39:57;;;;;;;4.30;1.88;;;;;;;;;;5057942;28;20770;-76
2022/11/01 04:42:22;;;;;;;4.43;1.77;;;;;;;;;;5057245;28;20024;-76
2022/11/01 04:44:48;;;;;;;3.95;1.65;;;;;;;;;;5058031;28;20263;-75
2022/11/01 04:47:13;;;;;;;2.75;1.38;;;;;;;;;;5059977;28;20058;-74
2022/11/01 04:49:38;;;;;;;3.70;1.60;;;;;;;;;;5057823;28;20101;-76
2022/11/01 04:52:04;;;;;;;9.10;1.60;;;;;;;;;;5058307;28;20021;-76
2022/11/01 04:54:32;;;;;;;4.17;1.50;;;;;;;;;;5057891;28;20295;-77
2022/11/01 04:56:57;;;;;;;4.15;1.50;;;;;;;;;;5072649;28;20760;-75
2022/11/01 04:59:22;;;;;;;3.97;1.65;;;;;;;;;;5073955;28;20058;-75
2022/11/01 05:01:47;;;;;;;3.13;1.40;;;;;;;;;;5071514;28;20023;-80
2022/11/01 05:04:13;;;;;;;12.60;2.27;;;;;;;;;;5076174;28;20293;-78
2022/11/01 05:06:38;;;;;;;5.53;1.73;;;;;;;;;;5086229;28;20281;-76
2022/11/01 05:09:03;;;;;;;6.93;1.63;;;;;;;;;;5077106;28;20023;-76
2022/11/01 05:11:28;;;;;;;5.93;1.63;;;;;;;;;;5069185;28;20271;-75
2022/11/01 05:13:54;;;;;;;7.30;1.95;;;;;;;;;;5068453;28;20074;-75
2022/11/01 05:16:19;;;;;;;3.93;1.30;;;;;;;;;;5074099;28;20091;-75
2022/11/01 05:18:44;;;;;;;6.80;1.40;;;;;;;;;;5075250;28;20306;-83
2022/11/01 05:21:10;;;;;;;3.50;1.45;;;;;;;;;;5080258;28;20052;-77
2022/11/01 05:23:35;;;;;;;3.83;1.17;;;;;;;;;;5073630;28;20013;-76
2022/11/01 05:26:00;;;;;;;9.88;1.42;;;;;;;;;;5072463;28;20012;-76
2022/11/01 05:28:25;;;;;;;8.03;1.80;;;;;;;;;;5060610;28;20056;-77
2022/11/01 05:30:51;;;;;;;3.87;1.30;;;;;;;;;;5059509;28;20307;-75
2022/11/01 05:33:16;;;;;;;3.43;1.07;;;;;;;;;;5058802;28;20322;-75
2022/11/01 05:35:41;;;;;;;3.47;1.30;;;;;;;;;;5054287;28;20283;-74
2022/11/01 05:38:06;;;;;;;7.07;1.42;;;;;;;;;;5048619;28;20266;-77
2022/11/01 05:40:32;;;;;;;3.60;1.40;;;;;;;;;;5063684;28;20033;-76
2022/11/01 05:42:57;;;;;;;6.55;1.80;;;;;;;;;;5076171;28;20265;-73
2022/11/01 05:45:22;;;;;;;3.47;1.52;;;;;;;;;;5093170;28;20016;-75
2022/11/01 05:47:48;;;;;;;3.38;1.13;;;;;;;;;;5062686;28;20021;-75
2022/11/01 05:50:14;;;;;;;4.88;1.20;;;;;;;;;;5067438;28;20013;-78
2022/11/01 05:52:39;;;;;;;4.38;1.38;;;;;;;;;;5058359;28;20017;-75
2022/11/01 05:55:06;;;;;;;3.22;1.20;;;;;;;;;;5060433;28;20772;-74
2022/11/01 05:57:31;;;;;;;8.63;2.10;;;;;;;;;;5055503;28;20049;-76
2022/11/01 05:59:56;;;;;;;7.15;1.67;;;;;;;;;;5059702;28;20039;-74
2022/11/01 06:02:21;;;;;;;6.13;2.00;;;;;;;;;;5073082;28;20432;-74
2022/11/01 06:04:47;;;;;;;3.35;1.50;;;;;;;;;;5074069;28;20029;-73
2022/11/01 06:07:12;;;;;;;5.27;1.57;;;;;;;;;;5072342;28;20473;-76
2022/11/01 06:09:37;;;;;;;3.88;1.52;;;;;;;;;;5073218;28;20262;-76
2022/11/01 06:12:03;;;;;;;3.90;1.50;;;;;;;;;;5072113;28;20359;-73
2022/11/01 06:14:28;;;;;;;2.90;1.08;;;;;;;;;;5051976;28;20013;-76
2022/11/01 06:16:53;;;;;;;5.00;1.30;;;;;;;;;;5067581;28;20058;-75
2022/11/01 06:19:19;;;;;;;4.07;1.40;;;;;;;;;;5057294;28;20282;-74
2022/11/01 06:21:44;;;;;;;10.70;2.05;;;;;;;;;;5063163;28;20274;-75
2022/11/01 06:24:10;;;;;;;7.93;1.45;;;;;;;;;;5061938;28;20013;-73
2022/11/01 06:26:35;;;;;;;3.90;1.60;;;;;;;;;;5068753;28;20363;-77
2022/11/01 06:29:01;;;;;;;12.57;1.92;;;;;;;;;;5072698;28;20089;-76
2022/11/01 06:31:26;;;;;;;6.47;1.45;;;;;;;;;;5074127;28;20396;-75
2022/11/01 06:33:51;;;;;;;3.28;1.17;;;;;;;;;;5073377;28;20435;-74
2022/11/01 06:36:16;;;;;;;4.47;1.50;;;;;;;;;;5072221;28;20063;-77
2022/11/01 06:38:42;;;;;;;5.07;1.33;;;;;;;;;;5072842;28;20349;-75
2022/11/01 06:41:07;;;;;;;7.50;1.80;;;;;;;;;;5073120;28;20294;-73
2022/11/01 06:43:32;;;;;;;5.60;1.45;;;;;;;;;;5073125;28;20277;-73
2022/11/01 06:45:59;;;;;;;4.50;1.27;;;;;;;;;;5071947;28;20099;-71
2022/11/01 06:48:24;;;;;;;4.32;1.77;;;;;;;;;;5058418;28;20052;-73
2022/11/01 06:50:50;;;;;;;5.87;1.83;;;;;;;;;;5059178;28;20052;-75
2022/11/01 06:53:15;;;;;;;8.05;2.40;;;;;;;;;;5071250;28;20286;-73
2022/11/01 06:55:41;;;;;;;6.60;1.58;;;;;;;;;;5070855;28;20040;-73
2022/11/01 06:58:06;;;;;;;3.75;1.63;;;;;;;;;;5030460;28;20061;-73
2022/11/01 07:00:31;;;;;;;7.00;2.03;;;;;;;;;;5057982;28;20085;-72
2022/11/01 07:03:01;;;;;;;7.75;2.13;;;;;;;;;;5071853;28;20039;-71
2022/11/01 07:05:26;;;;;;;3.75;1.75;;;;;;;;;;5086028;28;20466;-72
2022/11/01 07:07:52;;;;;;;6.30;1.67;;;;;;;;;;5071879;28;20074;-72
2022/11/01 07:10:17;;;;;;;6.82;2.53;;;;;;;;;;5083653;28;20024;-77
2022/11/01 07:12:42;;;;;;;6.78;2.28;;;;;;;;;;5092158;28;20454;-72
2022/11/01 07:15:07;;;;;;;11.27;2.80;;;;;;;;;;5082612;28;20047;-72
2022/11/01 07:17:33;;;;;;;10.00;3.10;;;;;;;;;;5060204;28;20267;-77
2022/11/01 07:19:58;;;;;;;8.15;3.05;;;;;;;;;;5070976;28;20016;-73
2022/11/01 07:22:23;;;;;;;8.50;2.47;;;;;;;;;;5076478;28;20032;-72
2022/11/01 07:24:48;;;;;;;6.70;2.30;;;;;;;;;;5080430;28;20280;-72
2022/11/01 07:27:14;;;;;;;7.88;2.75;;;;;;;;;;5079003;28;20094;-71
2022/11/01 07:29:40;;;;;;;7.13;2.63;;;;;;;;;;5075671;28;20095;-71
2022/11/01 07:32:05;;;;;;;14.02;3.10;;;;;;;;;;5076011;28;20095;-73
2022/11/01 07:34:31;;;;;;;6.82;3.08;;;;;;;;;;5065036;28;20111;-73
2022/11/01 07:36:56;;;;;;;8.88;2.40;;;;;;;;;;5069394;28;20036;-72
2022/11/01 07:39:21;;;;;;;12.73;2.83;;;;;;;;;;5063947;28;20461;-72
2022/11/01 07:41:47;;;;;;;8.75;2.15;;;;;;;;;;5070088;28;20024;-72
2022/11/01 07:44:12;;;;;;;7.75;2.33;;;;;;;;;;5073514;28;20532;-75
2022/11/01 07:46:37;;;;;;;8.30;2.13;;;;;;;;;;5076976;28;20029;-74
2022/11/01 07:49:03;;;;;;;19.70;3.15;;;;;;;;;;5068274;28;20017;-74
2022/11/01 07:51:28;;;;;;;6.15;2.55;;;;;;;;;;5062366;28;20099;-74
2022/11/01 07:53:53;;;;;;;7.20;2.38;;;;;;;;;;5069971;28;20016;-74
2022/11/01 07:56:20;;;;;;;10.18;2.80;;;;;;;;;;5078463;28;20455;-74
2022/11/01 07:58:46;;;;;;;7.18;2.53;;;;;;;;;;5078220;28;20038;-75
2022/11/01 08:01:11;;;;;;;10.40;3.08;;;;;;;;;;5076225;28;20036;-76
2022/11/01 08:03:37;;;;;;;11.93;3.03;;;;;;;;;;5026350;28;20897;-75
2022/11/01 08:06:02;;;;;;;10.52;2.92;;;;;;;;;;5026053;28;20322;-77
2022/11/01 08:08:28;;;;;;;11.25;2.28;;;;;;;;;;5040427;28;20805;-72
2022/11/01 08:10:53;;;;;;;5.95;2.75;;;;;;;;;;5042044;28;20024;-73
2022/11/01 08:13:22;;;;;;;7.72;2.60;;;;;;;;;;5039446;28;20123;-76
2022/11/01 08:15:48;;;;;;;6.22;2.55;;;;;;;;;;5069036;28;21208;-79
2022/11/01 08:18:14;;;;;;;8.00;2.50;;;;;;;;;;5064126;28;20024;-75
2022/11/01 08:20:40;;;;;;;9.23;2.20;;;;;;;;;;5074344;28;20340;-78
2022/11/01 08:23:05;;;;;;;9.18;2.08;;;;;;;;;;5074834;28;20019;-75
2022/11/01 08:25:30;;;;;;;14.23;3.38;;;;;;;;;;5074738;28;20024;-72
2022/11/01 08:28:19;;;;;;;13.82;2.65;;;;;;;;;;5066934;28;20021;-74
2022/11/01 08:30:45;;;;;;;10.60;2.38;;;;;;;;;;5059181;28;20028;-74
2022/11/01 08:33:10;;;;;;;7.10;2.55;;;;;;;;;;5057303;28;20063;-73
2022/11/01 08:35:36;;;;;;;10.93;2.58;;;;;;;;;;5063712;28;20479;-73
2022/11/01 08:38:04;;;;;;;6.72;1.92;;;;;;;;;;5074903;28;20119;-74
2022/11/01 08:40:30;;;;;;;7.63;2.70;;;;;;;;;;5072771;28;20425;-74
2022/11/01 08:42:56;;;;;;;7.07;2.83;;;;;;;;;;5074506;28;20118;-76
2022/11/01 08:45:21;;;;;;;8.75;2.70;;;;;;;;;;5061005;28;20020;-74
2022/11/01 08:47:46;;;;;;;7.15;2.58;;;;;;;;;;5059824;28;20032;-73
2022/11/01 08:50:13;;;;;;;5.30;2.33;;;;;;;;;;5074351;28;20019;-77
2022/11/01 08:52:38;;;;;;;6.93;2.72;;;;;;;;;;5070227;28;20016;-75
2022/11/01 08:55:04;;;;;;;7.15;2.72;;;;;;;;;;5051648;28;20020;-74
2022/11/01 08:57:29;;;;;;;7.70;3.03;;;;;;;;;;5058552;28;20051;-75
2022/11/01 08:59:55;;;;;;;14.02;3.03;;;;;;;;;;5052091;28;20017;-75
2022/11/01 09:02:20;;;;;;;6.78;2.58;;;;;;;;;;5074107;28;20406;-75
2022/11/01 09:04:45;;;;;;;15.88;3.13;;;;;;;;;;5082209;28;20146;-73
2022/11/01 09:07:10;;;;;;;8.48;3.20;;;;;;;;;;5080311;28;20050;-73
2022/11/01 09:09:36;;;;;;;11.77;3.80;;;;;;;;;;5063200;28;20029;-73
2022/11/01 09:12:02;;;;;;;13.55;2.95;;;;;;;;;;5060660;28;20832;-73
2022/11/01 09:14:27;;;;;;;9.90;3.08;;;;;;;;;;5071651;28;20012;-77
2022/11/01 09:16:53;;;;;;;10.67;2.97;;;;;;;;;;5065503;28;20407;-73
2022/11/01 09:19:18;;;;;;;7.25;2.80;;;;;;;;;;5068423;28;20618;-75
2022/11/01 09:21:44;;;;;;;7.25;2.75;;;;;;;;;;5073774;28;20481;-74
2022/11/01 09:24:12;;;;;;;8.63;3.08;;;;;;;;;;5063622;28;20017;-72
2022/11/01 09:26:37;;;;;;;13.43;3.33;;;;;;;;;;5072491;28;20020;-73
2022/11/01 09:29:03;;;;;;;9.10;3.20;;;;;;;;;;5073864;28;20108;-73
2022/11/01 09:31:28;;;;;;;9.80;3.20;;;;;;;;;;5073016;28;20422;-74
2022/11/01 09:33:55;;;;;;;10.20;3.17;;;;;;;;;;5074103;28;20287;-75
2022/11/01 09:36:20;;;;;;;6.85;2.88;;;;;;;;;;5072815;28;20028;-75
2022/11/01 09:38:45;;;;;;;14.65;3.50;;;;;;;;;;5054557;28;20098;-72
2022/11/01 09:41:23;;;;;;;17.87;4.03;;;;;;;;;;5054896;28;20034;-77
2022/11/01 09:43:48;;;;;;;9.32;3.13;;;;;;;;;;5073341;28;20267;-75
2022/11/01 09:46:15;;;;;;;8.52;3.67;;;;;;;;;;5069861;28;20027;-73
2022/11/01 09:48:41;;;;;;;11.25;3.38;;;;;;;;;;5062711;28;20016;-72
2022/11/01 09:51:09;;;;;;;10.85;3.35;;;;;;;;;;5061704;28;20070;-73
2022/11/01 09:53:34;;;;;;;16.13;4.03;;;;;;;;;;5072980;28;20016;-74
2022/11/01 09:56:09;;;;;;;11.05;3.38;;;;;;;;;;5069619;28;20485;-73
2022/11/01 09:58:34;;;;;;;12.75;3.38;;;;;;;;;;5071527;28;20024;-75
2022/11/01 10:01:04;;;;;;;12.73;3.40;;;;;;;;;;5073314;28;20071;-78
2022/11/01 10:03:38;;;;;;;12.05;3.38;;;;;;;;;;5064999;28;20772;-76
2022/11/01 10:06:08;;;;;;;12.57;3.50;;;;;;;;;;5089841;28;20028;-75
2022/11/01 10:08:52;;;;;;;11.45;3.97;;;;;;;;;;5072998;28;20029;-76
2022/11/01 10:11:52;;;;;;;13.43;3.28;;;;;;;;;;5075182;28;20042;-78
2022/11/01 10:14:30;;;;;;;13.13;3.70;;;;;;;;;;5056975;28;20029;-75
2022/11/01 10:17:02;;;;;;;11.82;3.00;;;;;;;;;;5063499;28;20059;-75
2022/11/01 10:19:31;;;;;;;8.98;3.67;;;;;;;;;;5062165;28;20184;-75
2022/11/01 10:22:01;;;;;;;9.50;3.08;;;;;;;;;;5072722;28;20463;-76
2022/11/01 10:24:35;;;;;;;8.48;3.42;;;;;;;;;;5072683;28;20022;-74
2022/11/01 10:27:06;;;;;;;13.63;4.28;;;;;;;;;;5071773;28;20050;-76
2022/11/01 10:29:40;;;;;;;6.68;3.22;;;;;;;;;;5068006;28;20017;-75
2022/11/01 10:32:14;;;;;;;16.38;3.40;;;;;;;;;;5073221;28;20019;-76
2022/11/01 10:34:39;;;;;;;;;;;;;;;;;;5061548;28;20032;-74
2022/11/01 10:37:31;;;;;;;8.70;3.13;;;;;;;;;;5068987;28;19921;-75
2022/11/01 10:40:00;;;;;;;16.95;3.55;;;;;;;;;;5058893;28;20067;-73
2022/11/01 10:42:26;;;;;;;13.13;3.80;;;;;;;;;;5059740;28;20466;-75
2022/11/01 10:44:54;;;;;;;9.00;3.85;;;;;;;;;;5073485;28;20169;-77
2022/11/01 10:47:20;;;;;;;11.23;3.15;;;;;;;;;;5059326;28;20024;-74
2022/11/01 10:50:05;;;;;;;10.52;3.53;;;;;;;;;;5066089;28;20012;-75
2022/11/01 10:52:45;;;;;;;8.73;3.63;;;;;;;;;;5064855;28;20486;-73
2022/11/01 10:55:17;;;;;;;11.95;3.22;;;;;;;;;;5051819;28;20491;-74
2022/11/01 10:57:45;;;;;;;13.65;3.72;;;;;;;;;;5065122;28;20413;-76
2022/11/01 11:00:18;;;;;;;8.05;3.67;;;;;;;;;;5052036;28;20033;-75
2022/11/01 11:02:49;;;;;;;12.65;3.70;;;;;;;;;;5065303;28;20107;-77
2022/11/01 11:05:15;;;;;;;9.38;3.35;;;;;;;;;;5055995;28;20116;-74
2022/11/01 11:07:41;;;;;;;10.15;3.50;;;;;;;;;;5056524;28;20100;-76
2022/11/01 11:10:25;;;;;;;9.13;3.08;;;;;;;;;;5053448;28;20025;-76
2022/11/01 11:12:51;;;;;;;;;;;;;;;;;;5053477;28;20020;-76
2022/11/01 11:15:19;;;;;;;7.43;2.67;;;;;;;;;;5052388;28;19958;-74
2022/11/01 11:17:48;;;;;;;11.55;3.50;;;;;;;;;;5053417;28;20470;-76
2022/11/01 11:20:18;;;;;;;6.53;2.55;;;;;;;;;;5056730;28;20463;-76
2022/11/01 11:22:44;;;;;;;10.70;3.40;;;;;;;;;;5057264;28;20470;-74
2022/11/01 11:25:14;;;;;;;12.40;3.17;;;;;;;;;;5058321;28;20021;-78
2022/11/01 11:27:42;;;;;;;7.88;2.90;;;;;;;;;;5057889;28;20360;-76
2022/11/01 11:30:09;;;;;;;9.77;3.38;;;;;;;;;;5062877;28;20422;-78
2022/11/01 11:32:35;;;;;;;11.15;3.20;;;;;;;;;;5071636;28;20017;-75
2022/11/01 11:35:01;;;;;;;15.15;3.10;;;;;;;;;;5082455;28;20016;-74
2022/11/01 11:37:33;;;;;;;9.88;3.20;;;;;;;;;;5079485;28;20119;-75
2022/11/01 11:40:00;;;;;;;11.90;3.50;;;;;;;;;;5082350;28;20024;-77
2022/11/01 11:42:26;;;;;;;7.93;3.70;;;;;;;;;;5078567;28;20020;-75
2022/11/01 11:44:54;;;;;;;8.93;3.10;;;;;;;;;;5084528;28;20051;-79
2022/11/01 11:47:23;;;;;;;12.13;3.38;;;;;;;;;;5058773;28;20533;-75
2022/11/01 11:49:52;;;;;;;12.05;3.10;;;;;;;;;;5070005;28;20017;-75
2022/11/01 11:52:19;;;;;;;11.15;2.97;;;;;;;;;;5072116;28;20141;-74
2022/11/01 11:54:45;;;;;;;9.80;3.53;;;;;;;;;;5070637;28;20131;-78
2022/11/01 11:57:18;;;;;;;6.13;2.85;;;;;;;;;;5061912;28;20104;-75
2022/11/01 11:59:45;;;;;;;6.85;3.10;;;;;;;;;;5067485;28;20025;-74
2022/11/01 12:02:18;;;;;;;11.20;3.60;;;;;;;;;;5071740;28;20107;-74
2022/11/01 12:04:55;;;;;;;9.43;3.20;;;;;;;;;;5076761;28;20016;-74
2022/11/01 12:07:22;;;;;;;8.10;3.10;;;;;;;;;;5082309;28;20061;-74
2022/11/01 12:09:47;;;;;;;9.07;2.88;;;;;;;;;;5079703;28;20070;-76
2022/11/01 12:12:15;;;;;;;6.90;2.95;;;;;;;;;;5082329;28;20518;-75
2022/11/01 12:14:41;;;;;;;7.97;2.60;;;;;;;;;;5095198;28;20020;-73
2022/11/01 12:17:23;;;;;;;6.43;2.88;;;;;;;;;;5079487;28;20024;-75
2022/11/01 12:19:48;;;;;;;14.75;2.80;;;;;;;;;;5091223;28;20024;-76
2022/11/01 12:22:13;;;;;;;10.10;2.88;;;;;;;;;;5073202;28;20089;-75
2022/11/01 12:24:45;;;;;;;6.25;2.60;;;;;;;;;;5073280;28;20623;-74
2022/11/01 12:27:14;;;;;;;7.63;2.88;;;;;;;;;;5072645;28;20024;-76
2022/11/01 12:29:49;;;;;;;6.40;2.67;;;;;;;;;;5062471;28;20059;-76
2022/11/01 12:32:24;;;;;;;8.07;2.97;;;;;;;;;;5074155;28;20020;-76
2022/11/01 12:34:51;;;;;;;7.00;2.75;;;;;;;;;;5060791;28;20467;-78
2022/11/01 12:37:17;;;;;;;11.07;3.25;;;;;;;;;;5070667;28;20051;-75
2022/11/01 12:39:45;;;;;;;14.80;3.00;;;;;;;;;;5074609;28;20467;-73
2022/11/01 12:42:13;;;;;;;6.63;2.97;;;;;;;;;;5076515;28;20070;-75
2022/11/01 12:44:42;;;;;;;6.57;3.03;;;;;;;;;;5075484;28;20028;-77
2022/11/01 12:47:08;;;;;;;9.05;2.63;;;;;;;;;;5065291;28;20025;-76
2022/11/01 12:49:36;;;;;;;7.97;2.90;;;;;;;;;;5063800;28;20490;-77
2022/11/01 12:52:08;;;;;;;7.10;2.70;;;;;;;;;;5067457;28;20266;-77
2022/11/01 12:54:36;;;;;;;16.52;3.05;;;;;;;;;;5059990;28;20020;-76
2022/11/01 12:57:01;;;;;;;7.82;2.90;;;;;;;;;;5064313;28;20048;-79
2022/11/01 12:59:31;;;;;;;8.40;2.83;;;;;;;;;;5059442;28;20095;-77
2022/11/01 13:01:56;;;;;;;6.82;2.63;;;;;;;;;;5061231;28;20024;-76
2022/11/01 13:04:24;;;;;;;6.68;2.63;;;;;;;;;;5061792;28;20370;-75
2022/11/01 13:06:50;;;;;;;6.30;2.38;;;;;;;;;;5076937;28;20507;-71
2022/11/01 13:09:21;;;;;;;5.63;2.90;;;;;;;;;;5038021;28;20029;-72
2022/11/01 13:11:47;;;;;;;10.00;3.42;;;;;;;;;;5061545;28;20025;-80
2022/11/01 13:14:18;;;;;;;5.18;2.25;;;;;;;;;;5067963;28;20029;-76
2022/11/01 13:16:47;;;;;;;8.57;2.58;;;;;;;;;;5066452;28;20040;-77
2022/11/01 13:19:36;;;;;;;10.05;2.95;;;;;;;;;;5087680;28;20547;-76
2022/11/01 13:22:12;;;;;;;11.40;2.97;;;;;;;;;;5069669;28;20033;-75
2022/11/01 13:24:46;;;;;;;8.00;3.00;;;;;;;;;;5067513;28;20028;-78
2022/11/01 13:27:12;;;;;;;9.88;2.78;;;;;;;;;;5053501;28;20390;-78
2022/11/01 13:29:43;;;;;;;8.53;2.53;;;;;;;;;;5065926;28;20036;-76
2022/11/01 13:32:17;;;;;;;8.13;2.85;;;;;;;;;;5066980;28;20020;-78
2022/11/01 13:34:49;;;;;;;6.68;2.40;;;;;;;;;;5065034;28;20078;-76
2022/11/01 13:37:29;;;;;;;7.07;2.72;;;;;;;;;;5059309;28;20024;-75
2022/11/01 13:40:14;;;;;;;6.35;2.42;;;;;;;;;;5060716;28;20044;-76
2022/11/01 13:42:40;;;;;;;9.55;2.85;;;;;;;;;;5054194;28;20039;-74
2022/11/01 13:45:06;;;;;;;8.10;2.40;;;;;;;;;;5052196;28;20020;-76
2022/11/01 13:47:50;;;;;;;10.00;3.03;;;;;;;;;;5054853;28;20079;-75
2022/11/01 13:50:33;;;;;;;6.47;2.33;;;;;;;;;;5063023;28;20103;-76
2022/11/01 13:53:13;;;;;;;12.88;2.88;;;;;;;;;;5065742;28;20020;-76
2022/11/01 13:55:42;;;;;;;8.45;3.20;;;;;;;;;;5062849;28;20025;-77
2022/11/01 13:58:12;;;;;;;9.40;3.40;;;;;;;;;;5062813;28;20021;-77
2022/11/01 14:00:39;;;;;;;12.68;3.63;;;;;;;;;;5061969;28;20115;-77
2022/11/01 14:03:28;;;;;;;7.93;2.83;;;;;;;;;;5061739;28;20016;-78
2022/11/01 14:06:22;;;;;;;8.52;3.25;;;;;;;;;;5048340;28;20251;-74
2022/11/01 14:08:50;;;;;;;6.60;2.90;;;;;;;;;;5045314;28;20082;-82
2022/11/01 14:11:54;;;;;;;8.85;3.10;;;;;;;;;;5067049;28;20021;-77
2022/11/01 14:14:29;;;;;;;7.88;3.25;;;;;;;;;;5030495;28;20074;-76
2022/11/01 14:17:13;;;;;;;8.80;3.50;;;;;;;;;;5018826;28;20017;-76
2022/11/01 14:19:38;;;;;;;7.05;3.33;;;;;;;;;;5044857;28;20041;-75
2022/11/01 14:22:23;;;;;;;8.63;3.23;;;;;;;;;;5061945;28;20055;-76
2022/11/01 14:24:53;;;;;;;7.28;2.88;;;;;;;;;;5048375;28;20300;-77
2022/11/01 14:27:28;;;;;;;8.80;2.95;;;;;;;;;;5054057;28;20043;-77
2022/11/01 14:29:54;;;;;;;7.10;2.50;;;;;;;;;;5062987;28;20012;-77
2022/11/01 14:32:21;;;;;;;16.70;3.00;;;;;;;;;;5070268;28;20352;-73
2022/11/01 14:34:54;;;;;;;6.80;3.38;;;;;;;;;;5058453;28;20016;-73
2022/11/01 14:37:21;;;;;;;10.10;2.58;;;;;;;;;;5071174;28;20079;-76
2022/11/01 14:39:47;;;;;;;10.63;2.58;;;;;;;;;;5069267;28;20024;-76
2022/11/01 14:42:14;;;;;;;18.27;2.80;;;;;;;;;;5072101;28;20494;-79
2022/11/01 14:44:42;;;;;;;9.93;3.20;;;;;;;;;;5045379;28;20799;-79
2022/11/01 14:47:17;;;;;;;7.65;2.97;;;;;;;;;;5032050;28;20024;-80
2022/11/01 14:49:43;;;;;;;4.75;1.92;;;;;;;;;;5067415;28;20418;-80
2022/11/01 14:52:08;;;;;;;6.00;2.80;;;;;;;;;;5071736;28;20024;-70
2022/11/01 14:54:36;;;;;;;5.30;2.40;;;;;;;;;;5071065;28;20378;-77
2022/11/01 14:57:01;;;;;;;8.57;2.42;;;;;;;;;;5064828;28;20741;-77
2022/11/01 14:59:27;;;;;;;6.43;3.28;;;;;;;;;;5060483;28;20101;-75